Orlando, Arkansas
Current Conditions -  °F | °C
As of 6:53 PM on Saturday 25 Oct 2014 (Local Time) from KLLQ Reporting Station
Clear Clear  
Wind Chill: 71°   Ceiling: Unl
Heat Index: 71°   Visibility: 10mi
Dew Point: 66°   Wind: 3mph
Humidity: 84%   Direction: 240°WSW
Pressure: 30.05"   Gusts: NA
Location:  33.7656°N, 92.1916°W
Report Text: KLLQ 252353Z AUTO 24003KT 10SM CLR 22/19 A3005 RMK AO2 SLP174 T02170189 10278 20217 55002
Loading
Personal Weather Stations






























Interactive Weather Map
Tropical Storm Tracking
New forecast layout! Learn more

10-Day Weather Forecast

Advertisements
Track Severe Weather on mobile